createdAt,value
2023-03-11T00:05:09.411Z,100992.03
2023-03-11T00:07:18.006Z,100992.84
2023-03-11T00:09:27.281Z,100999.75
2023-03-11T00:11:32.097Z,100997.22
2023-03-11T00:13:37.038Z,100998.00
2023-03-11T00:15:46.756Z,101006.66
2023-03-11T00:17:53.274Z,101009.19
2023-03-11T00:19:59.766Z,101013.50
2023-03-11T00:22:06.253Z,101014.28
2023-03-11T00:24:15.629Z,101016.91
2023-03-11T00:26:20.462Z,101019.50
2023-03-11T00:28:26.954Z,101019.44
2023-03-11T00:30:32.358Z,101027.25
2023-03-11T00:32:37.435Z,101028.97
2023-03-11T00:34:44.649Z,101038.38
2023-03-11T00:36:50.906Z,101046.88
2023-03-11T00:38:55.863Z,101047.66
2023-03-11T00:41:06.528Z,101033.03
2023-03-11T00:43:11.520Z,101042.41
2023-03-11T00:45:17.625Z,101038.16
2023-03-11T00:47:22.860Z,101039.78
2023-03-11T00:49:28.189Z,101033.66
2023-03-11T00:51:34.259Z,101038.75
2023-03-11T00:53:39.521Z,101050.75
2023-03-11T00:55:49.352Z,101041.19
2023-03-11T00:57:58.487Z,101052.34
2023-03-11T01:00:04.589Z,101047.97
2023-03-11T01:02:09.597Z,101051.34
2023-03-11T01:04:14.851Z,101053.06
2023-03-11T01:06:19.733Z,101048.72
2023-03-11T01:08:24.839Z,101053.78
2023-03-11T01:10:30.040Z,101050.31
2023-03-11T01:12:40.642Z,101051.97
2023-03-11T01:14:48.270Z,101048.69
2023-03-11T01:16:55.044Z,101057.19
2023-03-11T01:19:01.426Z,101058.00
2023-03-11T01:21:12.080Z,101063.91
2023-03-11T01:23:20.991Z,101063.88
2023-03-11T01:25:27.598Z,101067.25
2023-03-11T01:27:34.503Z,101056.91
2023-03-11T01:29:44.217Z,101059.44
2023-03-11T01:31:51.962Z,101061.94
2023-03-11T01:33:56.891Z,101060.13
2023-03-11T01:36:02.837Z,101069.47
2023-03-11T01:38:10.470Z,101070.28
2023-03-11T01:40:20.376Z,101073.69
2023-03-11T01:42:26.647Z,101072.81
2023-03-11T01:44:33.940Z,101077.09
2023-03-11T01:47:02.360Z,101075.28
2023-03-11T01:49:15.940Z,101081.25
2023-03-11T01:51:27.356Z,101072.56
2023-03-11T01:53:33.067Z,101084.53
2023-03-11T01:55:44.264Z,101082.78
2023-03-11T01:57:50.407Z,101080.13
2023-03-11T02:00:02.160Z,101089.56
2023-03-11T02:02:12.902Z,101078.41
2023-03-11T02:04:20.796Z,101089.56
2023-03-11T02:06:28.368Z,101084.47
2023-03-11T02:08:35.924Z,101086.97
2023-03-11T02:10:44.163Z,101084.34
2023-03-11T02:12:51.746Z,101072.28
2023-03-11T02:14:56.977Z,101086.88
2023-03-11T02:17:03.952Z,101088.56
2023-03-11T02:19:19.141Z,101089.38
2023-03-11T02:21:30.722Z,101091.84
2023-03-11T02:23:48.648Z,101084.06
2023-03-11T02:26:08.051Z,101083.19
2023-03-11T02:28:17.867Z,101083.16
2023-03-11T02:30:26.893Z,101088.38
2023-03-11T02:32:32.799Z,101079.84
2023-03-11T02:34:41.399Z,101073.75
2023-03-11T02:36:46.491Z,101084.00
2023-03-11T02:38:53.997Z,101085.59
2023-03-11T02:41:05.615Z,101088.19
2023-03-11T02:43:17.506Z,101090.69
2023-03-11T02:45:26.376Z,101094.13
2023-03-11T02:47:31.688Z,101086.41
2023-03-11T02:49:40.035Z,101085.56
2023-03-11T02:51:44.837Z,101086.50
2023-03-11T02:53:56.649Z,101090.00
2023-03-11T02:56:04.657Z,101091.69
2023-03-11T02:58:12.287Z,101091.81
2023-03-11T03:00:21.347Z,101104.72
2023-03-11T03:02:26.503Z,101105.63
2023-03-11T03:04:33.180Z,101105.63
2023-03-11T03:06:38.171Z,101104.00
2023-03-11T03:08:43.240Z,101106.44
2023-03-11T03:10:48.106Z,101108.94
2023-03-11T03:12:53.135Z,101111.47
2023-03-11T03:14:58.344Z,101115.66
2023-03-11T03:17:06.160Z,101116.47
2023-03-11T03:19:14.779Z,101119.00
2023-03-11T03:21:21.369Z,101119.81
2023-03-11T03:23:26.708Z,101123.16
2023-03-11T03:25:32.194Z,101125.72
2023-03-11T03:27:38.502Z,101124.81
2023-03-11T03:29:46.480Z,101125.63
2023-03-11T03:31:51.774Z,101133.22
2023-03-11T03:34:00.621Z,101135.78
2023-03-11T03:36:13.391Z,101137.50
2023-03-11T03:38:20.484Z,101144.53
2023-03-11T03:40:28.376Z,101141.00
2023-03-11T03:42:33.905Z,101146.16
2023-03-11T03:44:43.266Z,101146.88
2023-03-11T03:46:49.563Z,101155.41
2023-03-11T03:48:54.456Z,101149.34
2023-03-11T03:51:06.333Z,101155.34
2023-03-11T03:53:11.504Z,101157.78
2023-03-11T03:55:16.365Z,101158.59
2023-03-11T03:57:21.342Z,101167.94
2023-03-11T03:59:28.619Z,101162.72
2023-03-11T04:01:33.727Z,101163.50
2023-03-11T04:03:40.133Z,101168.63
2023-03-11T04:05:45.107Z,101163.38
2023-03-11T04:07:52.607Z,101161.66
2023-03-11T04:09:57.734Z,101159.94
2023-03-11T04:12:02.913Z,101155.59
2023-03-11T04:14:08.792Z,101157.34
2023-03-11T04:16:22.334Z,101147.88
2023-03-11T04:18:27.577Z,101150.44
2023-03-11T04:20:33.535Z,101147.78
2023-03-11T04:22:41.644Z,101156.28
2023-03-11T04:24:50.966Z,101160.59
2023-03-11T04:26:55.957Z,101147.72
2023-03-11T04:29:11.642Z,101157.13
2023-03-11T04:31:18.111Z,101155.38
2023-03-11T04:33:25.162Z,101161.38
2023-03-11T04:35:30.114Z,101156.19
2023-03-11T04:37:36.231Z,101164.75
2023-03-11T04:39:41.211Z,101164.69
2023-03-11T04:41:49.231Z,101172.50
2023-03-11T04:43:56.824Z,101175.19
2023-03-11T04:46:01.788Z,101180.31
2023-03-11T04:48:08.443Z,101181.25
2023-03-11T04:50:15.545Z,101184.69
2023-03-11T04:52:20.268Z,101175.03
2023-03-11T04:54:25.175Z,101168.97
2023-03-11T04:56:32.230Z,101180.84
2023-03-11T04:58:44.812Z,101178.19
2023-03-11T05:00:59.232Z,101172.06
2023-03-11T05:03:04.475Z,101178.06
2023-03-11T05:05:13.731Z,101182.28
2023-03-11T05:07:19.311Z,101189.13
2023-03-11T05:09:26.462Z,101189.00
2023-03-11T05:11:31.206Z,101192.38
2023-03-11T05:13:39.916Z,101194.97
2023-03-11T05:15:48.603Z,101200.91
2023-03-11T05:17:56.354Z,101196.44
2023-03-11T05:20:01.332Z,101196.38
2023-03-11T05:22:08.098Z,101188.66
2023-03-11T05:24:12.897Z,101203.28
2023-03-11T05:26:25.637Z,101197.22
2023-03-11T05:28:32.918Z,101202.47
2023-03-11T05:30:39.501Z,101203.38
2023-03-11T05:32:47.301Z,101201.84
2023-03-11T05:34:54.374Z,101204.44
2023-03-11T05:37:04.122Z,101201.00
2023-03-11T05:39:08.945Z,101204.50
2023-03-11T05:41:14.083Z,101209.50
2023-03-11T05:43:24.121Z,101204.38
2023-03-11T05:45:29.652Z,101212.09
2023-03-11T05:47:34.697Z,101206.09
2023-03-11T05:49:43.786Z,101216.47
2023-03-11T05:51:51.320Z,101221.44
2023-03-11T05:54:05.336Z,101227.31
2023-03-11T05:56:13.357Z,101222.97
2023-03-11T05:58:18.412Z,101227.31
2023-03-11T06:00:24.337Z,101233.22
2023-03-11T06:02:29.300Z,101234.03
2023-03-11T06:04:34.442Z,101228.78
2023-03-11T06:06:42.896Z,101226.09
2023-03-11T06:08:50.025Z,101239.78
2023-03-11T06:10:55.044Z,101239.78
2023-03-11T06:12:59.856Z,101241.53
2023-03-11T06:15:04.800Z,101239.97
2023-03-11T06:17:11.042Z,101249.31
2023-03-11T06:19:16.379Z,101245.88
2023-03-11T06:21:27.277Z,101251.88
2023-03-11T06:23:34.726Z,101250.13
2023-03-11T06:25:43.459Z,101248.25
2023-03-11T06:27:52.569Z,101250.16
2023-03-11T06:30:00.326Z,101250.06
2023-03-11T06:32:05.404Z,101269.00
2023-03-11T06:34:15.958Z,101263.94
2023-03-11T06:36:22.298Z,101268.22
2023-03-11T06:38:27.402Z,101273.47
2023-03-11T06:40:35.695Z,101271.75
2023-03-11T06:42:40.513Z,101275.31
2023-03-11T06:44:45.388Z,101275.38
2023-03-11T06:46:52.222Z,101280.53
2023-03-11T06:49:00.109Z,101285.03
2023-03-11T06:51:05.268Z,101284.31
2023-03-11T06:53:14.050Z,101286.91
2023-03-11T06:55:21.318Z,101285.34
2023-03-11T06:57:29.553Z,101283.59
2023-03-11T06:59:37.649Z,101282.84
2023-03-11T07:01:43.005Z,101287.97
2023-03-11T07:03:49.769Z,101289.91
2023-03-11T07:05:55.829Z,101286.41
2023-03-11T07:08:00.982Z,101284.69
2023-03-11T07:10:05.964Z,101287.31
2023-03-11T07:12:12.240Z,101292.56
2023-03-11T07:14:24.467Z,101292.47
2023-03-11T07:16:32.962Z,101301.19
2023-03-11T07:18:42.000Z,101311.72
2023-03-11T07:20:47.387Z,101315.41
2023-03-11T07:22:54.525Z,101308.66
2023-03-11T07:24:59.556Z,101309.84
2023-03-11T07:27:07.850Z,101305.66
2023-03-11T07:29:17.250Z,101303.16
2023-03-11T07:31:27.151Z,101303.97
2023-03-11T07:33:34.191Z,101311.03
2023-03-11T07:35:41.833Z,101305.28
2023-03-11T07:37:47.200Z,101314.63
2023-03-11T07:39:52.813Z,101322.41
2023-03-11T07:41:57.775Z,101321.91
2023-03-11T07:44:03.981Z,101328.22
2023-03-11T07:46:11.138Z,101328.66
2023-03-11T07:48:18.581Z,101337.75
2023-03-11T07:50:24.242Z,101332.13
2023-03-11T07:52:29.081Z,101336.78
2023-03-11T07:54:34.057Z,101341.38
2023-03-11T07:56:39.092Z,101344.09
2023-03-11T07:58:48.331Z,101335.72
2023-03-11T08:01:07.436Z,101337.75
2023-03-11T08:03:12.354Z,101343.94
2023-03-11T08:05:21.056Z,101340.84
2023-03-11T08:07:26.046Z,101346.13
2023-03-11T08:09:30.881Z,101341.09
2023-03-11T08:11:36.135Z,101349.03
2023-03-11T08:13:41.174Z,101355.28
2023-03-11T08:15:46.616Z,101352.84
2023-03-11T08:17:51.598Z,101356.47
2023-03-11T08:19:59.446Z,101351.44
2023-03-11T08:22:10.014Z,101361.94
2023-03-11T08:24:16.497Z,101358.53
2023-03-11T08:26:23.992Z,101362.06
2023-03-11T08:28:28.993Z,101369.00
2023-03-11T08:30:33.829Z,101368.19
2023-03-11T08:32:38.892Z,101367.31
2023-03-11T08:34:44.172Z,101364.75
2023-03-11T08:36:49.952Z,101366.47
2023-03-11T08:38:59.267Z,101371.66
2023-03-11T08:41:04.329Z,101364.72
2023-03-11T08:43:11.491Z,101373.38
2023-03-11T08:45:16.761Z,101378.50
2023-03-11T08:47:22.927Z,101381.13
2023-03-11T08:49:27.718Z,101380.25
2023-03-11T08:51:34.387Z,101392.31
2023-03-11T08:53:44.574Z,101382.75
2023-03-11T08:55:52.627Z,101377.59
2023-03-11T08:57:59.313Z,101377.63
2023-03-11T09:00:13.112Z,101372.34
2023-03-11T09:02:20.594Z,101376.59
2023-03-11T09:04:25.722Z,101386.97
2023-03-11T09:06:30.671Z,101389.59
2023-03-11T09:08:36.769Z,101393.91
2023-03-11T09:10:47.420Z,101389.50
2023-03-11T09:12:56.344Z,101380.88
2023-03-11T09:15:01.274Z,101389.59
2023-03-11T09:17:12.548Z,101384.41
2023-03-11T09:19:23.013Z,101393.16
2023-03-11T09:21:27.952Z,101388.88
2023-03-11T09:23:35.890Z,101393.16
2023-03-11T09:25:50.020Z,101393.19
2023-03-11T09:28:00.519Z,101390.56
2023-03-11T09:30:06.005Z,101395.75
2023-03-11T09:32:15.369Z,101393.16
2023-03-11T09:34:21.551Z,101397.44
2023-03-11T09:36:28.828Z,101395.69
2023-03-11T09:38:36.141Z,101400.81
2023-03-11T09:40:54.450Z,101396.38
2023-03-11T09:43:16.571Z,101397.16
2023-03-11T09:45:27.737Z,101394.56
2023-03-11T09:48:04.656Z,101390.19
2023-03-11T09:50:26.358Z,101391.88
2023-03-11T09:52:47.003Z,101385.06
2023-03-11T09:54:59.011Z,101392.84
2023-03-11T09:57:32.923Z,101403.22
2023-03-11T09:59:47.222Z,101398.78
2023-03-11T10:01:53.443Z,101405.72
2023-03-11T10:04:02.309Z,101404.91
2023-03-11T10:06:16.958Z,101403.97
2023-03-11T10:08:37.611Z,101397.91
2023-03-11T10:11:04.050Z,101394.44
2023-03-11T10:13:20.952Z,101393.50
2023-03-11T10:15:43.119Z,101398.69
2023-03-11T10:17:59.126Z,101393.53
2023-03-11T10:20:08.632Z,101384.81
2023-03-11T10:22:21.022Z,101389.16
2023-03-11T10:24:55.233Z,101386.38
2023-03-11T10:27:05.372Z,101392.31
2023-03-11T10:29:19.446Z,101386.41
2023-03-11T10:31:33.652Z,101398.47
2023-03-11T10:33:48.743Z,101396.00
2023-03-11T10:36:00.145Z,101390.84
2023-03-11T10:38:13.477Z,101398.53
2023-03-11T10:40:32.378Z,101397.81
2023-03-11T10:42:38.890Z,101394.47
2023-03-11T10:44:46.082Z,101406.50
2023-03-11T10:46:58.829Z,101409.81
2023-03-11T10:49:08.277Z,101407.94
2023-03-11T10:51:22.588Z,101408.72
2023-03-11T10:53:30.710Z,101413.06
2023-03-11T10:55:36.173Z,101415.63
2023-03-11T10:57:41.806Z,101411.88
2023-03-11T10:59:55.087Z,101405.94
2023-03-11T11:02:21.774Z,101410.13
2023-03-11T11:04:32.249Z,101411.72
2023-03-11T11:06:41.939Z,101408.31
2023-03-11T11:08:49.717Z,101411.47
2023-03-11T11:10:59.584Z,101412.31
2023-03-11T11:13:06.817Z,101411.38
2023-03-11T11:15:26.540Z,101415.25
2023-03-11T11:17:39.846Z,101419.53
2023-03-11T11:19:50.596Z,101423.84
2023-03-11T11:21:55.666Z,101418.31
2023-03-11T11:24:15.190Z,101418.13
2023-03-11T11:26:27.867Z,101415.47
2023-03-11T11:28:40.060Z,101413.81
2023-03-11T11:31:00.135Z,101415.91
2023-03-11T11:33:32.585Z,101406.16
2023-03-11T11:35:39.588Z,101404.56
2023-03-11T11:38:04.420Z,101408.06
2023-03-11T11:40:27.994Z,101409.31
2023-03-11T11:42:33.909Z,101412.38
2023-03-11T11:44:51.832Z,101411.34
2023-03-11T11:47:09.139Z,101401.06
2023-03-11T11:49:23.618Z,101401.47
2023-03-11T11:51:34.766Z,101401.53
2023-03-11T11:53:47.224Z,101396.75
2023-03-11T11:55:54.350Z,101391.78
2023-03-11T11:58:04.354Z,101397.34
2023-03-11T12:00:21.200Z,101398.25
2023-03-11T12:02:43.135Z,101400.59
2023-03-11T12:04:59.125Z,101389.56
2023-03-11T12:07:26.077Z,101399.16
2023-03-11T12:09:41.909Z,101392.41
2023-03-11T12:11:57.496Z,101391.94
2023-03-11T12:14:12.055Z,101392.06
2023-03-11T12:16:26.214Z,101394.88
2023-03-11T12:18:37.176Z,101386.69
2023-03-11T12:20:51.573Z,101392.75
2023-03-11T12:23:24.453Z,101393.34
2023-03-11T12:25:38.460Z,101395.72
2023-03-11T12:27:54.825Z,101395.38
2023-03-11T12:30:19.861Z,101387.47
2023-03-11T12:32:35.518Z,101381.66
2023-03-11T12:34:41.323Z,101397.63
2023-03-11T12:36:53.326Z,101391.75
2023-03-11T12:38:59.772Z,101395.22
2023-03-11T12:41:10.367Z,101391.53
2023-03-11T12:43:48.426Z,101401.31
2023-03-11T12:45:55.775Z,101401.38
2023-03-11T12:48:36.649Z,101397.09
2023-03-11T12:50:45.046Z,101389.94
2023-03-11T12:53:07.455Z,101392.72
2023-03-11T12:55:34.729Z,101393.38
2023-03-11T12:57:44.366Z,101385.56
2023-03-11T13:00:23.164Z,101395.69
2023-03-11T13:02:47.570Z,101390.47
2023-03-11T13:05:02.024Z,101389.69
2023-03-11T13:07:36.812Z,101378.06
2023-03-11T13:09:44.367Z,101382.06
2023-03-11T13:11:51.400Z,101381.16
2023-03-11T13:14:12.448Z,101379.22
2023-03-11T13:16:41.729Z,101376.53
2023-03-11T13:18:48.160Z,101374.81
2023-03-11T13:20:59.032Z,101373.97
2023-03-11T13:23:23.024Z,101366.81
2023-03-11T13:25:38.776Z,101366.00
2023-03-11T13:27:49.727Z,101362.91
2023-03-11T13:30:04.343Z,101378.31
2023-03-11T13:32:53.118Z,101371.69
2023-03-11T13:35:13.060Z,101374.72
2023-03-11T13:37:38.944Z,101377.97
2023-03-11T13:39:56.558Z,101376.75
2023-03-11T13:42:05.780Z,101376.56
2023-03-11T13:44:19.769Z,101376.69
2023-03-11T13:46:31.765Z,101377.13
2023-03-11T13:48:45.152Z,101374.94
2023-03-11T13:50:53.965Z,101375.16
2023-03-11T13:53:01.679Z,101373.16
2023-03-11T13:55:09.251Z,101384.59
2023-03-11T13:57:27.636Z,101389.31
2023-03-11T13:59:35.057Z,101370.53
2023-03-11T14:01:40.168Z,101386.28
2023-03-11T14:03:47.887Z,101379.56
2023-03-11T14:05:58.712Z,101376.00
2023-03-11T14:08:15.539Z,101379.13
2023-03-11T14:10:26.369Z,101382.00
2023-03-11T14:12:36.152Z,101383.75
2023-03-11T14:14:56.811Z,101388.81
2023-03-11T14:17:07.720Z,101382.34
2023-03-11T14:19:26.121Z,101396.16
2023-03-11T14:21:34.160Z,101396.94
2023-03-11T14:23:45.447Z,101404.38
2023-03-11T14:26:02.439Z,101405.44
2023-03-11T14:28:10.470Z,101400.09
2023-03-11T14:30:23.403Z,101402.00
2023-03-11T14:32:32.506Z,101405.41
2023-03-11T14:34:46.285Z,101393.81
2023-03-11T14:36:55.329Z,101398.28
2023-03-11T14:39:00.695Z,101400.66
2023-03-11T14:41:14.832Z,101391.09
2023-03-11T14:43:26.319Z,101388.13
2023-03-11T14:45:33.430Z,101393.78
2023-03-11T14:47:43.390Z,101390.53
2023-03-11T14:49:50.787Z,101391.88
2023-03-11T14:55:54.747Z,101393.84
2023-03-11T14:58:05.019Z,101382.78
2023-03-11T15:00:21.493Z,101389.06
2023-03-11T15:02:45.300Z,101388.34
2023-03-11T15:04:55.720Z,101395.91
2023-03-11T15:07:01.644Z,101395.19
2023-03-11T15:09:11.623Z,101399.09
2023-03-11T15:11:25.577Z,101404.63
2023-03-11T15:13:31.401Z,101401.09
2023-03-11T15:15:40.426Z,101406.16
2023-03-11T15:17:58.355Z,101406.34
2023-03-11T15:20:04.958Z,101405.28
2023-03-11T15:22:27.207Z,101401.50
2023-03-11T15:24:35.537Z,101387.34
2023-03-11T15:26:42.700Z,101394.16
2023-03-11T15:28:47.632Z,101389.31
2023-03-11T15:31:15.300Z,101391.88
2023-03-11T15:33:25.160Z,101395.69
2023-03-11T15:35:32.805Z,101395.19
2023-03-11T15:37:37.987Z,101395.22
2023-03-11T15:39:51.317Z,101393.28
2023-03-11T15:42:03.675Z,101394.66
2023-03-11T15:44:10.089Z,101391.22
2023-03-11T15:46:17.934Z,101382.78
2023-03-11T15:48:28.062Z,101382.00
2023-03-11T15:50:46.922Z,101375.69
2023-03-11T15:53:00.501Z,101381.81
2023-03-11T15:55:12.731Z,101379.66
2023-03-11T15:57:27.581Z,101381.59
2023-03-11T15:59:33.300Z,101379.78
2023-03-11T16:01:40.783Z,101391.03
2023-03-11T16:03:45.540Z,101394.97
2023-03-11T16:05:50.679Z,101389.31
2023-03-11T16:07:55.415Z,101391.22
2023-03-11T16:10:04.374Z,101386.97
2023-03-11T16:12:17.907Z,101393.00
2023-03-11T16:14:23.688Z,101391.69
2023-03-11T16:16:28.466Z,101385.91
2023-03-11T16:18:38.670Z,101392.50
2023-03-11T16:20:46.941Z,101395.91
2023-03-11T16:22:56.509Z,101393.66
2023-03-11T16:25:02.700Z,101396.56
2023-03-11T16:27:07.607Z,101391.00
2023-03-11T16:29:19.260Z,101387.28
2023-03-11T16:31:24.524Z,101388.16
2023-03-11T16:33:29.349Z,101387.19
2023-03-11T16:35:37.044Z,101375.16
2023-03-11T16:37:44.042Z,101384.94
2023-03-11T16:39:49.054Z,101380.47
2023-03-11T16:41:53.789Z,101388.44
2023-03-11T16:43:58.512Z,101383.47
2023-03-11T16:46:03.626Z,101384.44
2023-03-11T16:48:09.088Z,101387.09
2023-03-11T16:50:15.361Z,101382.16
2023-03-11T16:52:23.610Z,101369.03
2023-03-11T16:54:28.280Z,101374.28
2023-03-11T16:56:33.389Z,101378.00
2023-03-11T16:58:38.041Z,101371.16
2023-03-11T17:00:42.909Z,101379.16
2023-03-11T17:02:47.759Z,101381.69
2023-03-11T17:04:52.767Z,101393.09
2023-03-11T17:06:58.076Z,101388.81
2023-03-11T17:09:05.581Z,101381.13
2023-03-11T17:11:17.278Z,101376.81
2023-03-11T17:13:22.119Z,101383.84
2023-03-11T17:15:26.852Z,101383.00
2023-03-11T17:17:31.747Z,101386.53
2023-03-11T17:19:36.759Z,101390.03
2023-03-11T17:21:42.215Z,101388.34
2023-03-11T17:23:47.070Z,101393.59
2023-03-11T17:25:54.410Z,101387.53
2023-03-11T17:28:00.541Z,101397.06
2023-03-11T17:30:08.646Z,101396.25
2023-03-11T17:32:17.336Z,101398.03
2023-03-11T17:34:23.299Z,101400.69
2023-03-11T17:36:28.907Z,101399.81
2023-03-11T17:38:33.830Z,101395.53
2023-03-11T17:40:38.456Z,101402.44
2023-03-11T17:42:48.404Z,101394.63
2023-03-11T17:44:53.424Z,101404.19
2023-03-11T17:46:58.140Z,101396.41
2023-03-11T17:49:03.248Z,101404.25
2023-03-11T17:51:10.350Z,101409.44
2023-03-11T17:53:15.094Z,101416.41
2023-03-11T17:55:19.985Z,101414.69
2023-03-11T17:57:24.677Z,101414.72
2023-03-11T17:59:34.285Z,101423.41
2023-03-11T18:01:39.962Z,101427.78
2023-03-11T18:03:45.147Z,101421.72
2023-03-11T18:05:57.666Z,101429.53
2023-03-11T18:08:02.340Z,101433.88
2023-03-11T18:10:08.143Z,101429.56
2023-03-11T18:15:19.629Z,101433.06
2023-03-11T18:17:24.371Z,101436.53
2023-03-11T18:19:29.229Z,101440.03
2023-03-11T18:21:34.769Z,101437.44
2023-03-11T18:23:40.170Z,101441.75
2023-03-11T18:25:45.166Z,101444.34
2023-03-11T18:27:50.068Z,101440.91
2023-03-11T18:29:54.858Z,101441.78
2023-03-11T18:32:02.293Z,101435.72
2023-03-11T18:34:13.610Z,101443.50
2023-03-11T18:36:20.452Z,101446.97
2023-03-11T18:38:25.348Z,101446.09
2023-03-11T18:40:30.926Z,101453.00
2023-03-11T18:42:36.038Z,101460.78
2023-03-11T18:44:41.936Z,101459.06
2023-03-11T18:46:47.187Z,101453.00
2023-03-11T18:48:56.984Z,101453.84
2023-03-11T18:51:01.719Z,101454.69
2023-03-11T18:53:06.897Z,101461.59
2023-03-11T18:55:12.294Z,101454.66
2023-03-11T18:57:17.102Z,101458.13
2023-03-11T18:59:21.886Z,101460.69
2023-03-11T19:01:28.753Z,101456.38
2023-03-11T19:03:33.546Z,101459.03
2023-03-11T19:05:41.435Z,101454.72
2023-03-11T19:07:46.492Z,101459.03
2023-03-11T19:09:52.061Z,101457.28
2023-03-11T19:11:56.935Z,101452.97
2023-03-11T19:14:01.711Z,101452.09
2023-03-11T19:16:07.184Z,101458.13
2023-03-11T19:18:12.168Z,101456.41
2023-03-11T19:20:17.090Z,101452.09
2023-03-11T19:22:27.599Z,101452.09
2023-03-11T19:24:32.252Z,101448.66
2023-03-11T19:26:44.786Z,101449.50
2023-03-11T19:28:50.480Z,101441.69
2023-03-11T19:30:56.719Z,101438.25
2023-03-11T19:33:01.568Z,101437.38
2023-03-11T19:35:06.585Z,101439.94
2023-03-11T19:37:11.487Z,101445.16
2023-03-11T19:39:22.190Z,101440.81
2023-03-11T19:41:27.208Z,101437.34
2023-03-11T19:43:32.406Z,101440.81
2023-03-11T19:45:37.238Z,101433.91
2023-03-11T19:47:43.125Z,101448.59
2023-03-11T19:49:47.896Z,101434.78
2023-03-11T19:51:53.083Z,101442.53
2023-03-11T19:53:59.760Z,101437.38
2023-03-11T19:56:07.744Z,101443.41
2023-03-11T19:58:12.656Z,101433.00
2023-03-11T20:00:19.315Z,101436.47
2023-03-11T20:02:24.432Z,101441.63
2023-03-11T20:04:32.547Z,101433.84
2023-03-11T20:06:37.883Z,101439.88
2023-03-11T20:08:42.879Z,101430.34
2023-03-11T20:10:51.540Z,101437.22
2023-03-11T20:13:02.550Z,101431.16
2023-03-11T20:15:19.443Z,101438.06
2023-03-11T20:17:24.384Z,101436.34
2023-03-11T20:19:29.400Z,101432.00
2023-03-11T20:21:39.070Z,101436.34
2023-03-11T20:23:49.199Z,101429.44
2023-03-11T20:25:54.022Z,101438.97
2023-03-11T20:28:01.839Z,101433.78
2023-03-11T20:30:07.711Z,101442.38
2023-03-11T20:32:12.557Z,101443.25
2023-03-11T20:34:17.340Z,101443.25
2023-03-11T20:36:25.268Z,101448.44
2023-03-11T20:38:30.009Z,101429.47
2023-03-11T20:40:36.091Z,101429.47
2023-03-11T20:42:43.774Z,101426.88
2023-03-11T20:44:54.802Z,101426.00
2023-03-11T20:47:01.811Z,101430.38
2023-03-11T20:49:08.770Z,101433.84
2023-03-11T20:51:16.017Z,101430.41
2023-03-11T20:53:21.468Z,101426.09
2023-03-11T20:55:26.407Z,101422.66
2023-03-11T20:57:31.210Z,101419.22
2023-03-11T20:59:36.822Z,101426.97
2023-03-11T21:01:45.950Z,101425.25
2023-03-11T21:03:50.916Z,101425.28
2023-03-11T21:05:55.784Z,101423.56
2023-03-11T21:08:00.920Z,101426.13
2023-03-11T21:10:09.081Z,101431.31
2023-03-11T21:12:14.033Z,101420.94
2023-03-11T21:14:20.720Z,101420.94
2023-03-11T21:16:26.983Z,101422.69
2023-03-11T21:18:34.941Z,101431.31
2023-03-11T21:20:40.520Z,101417.50
2023-03-11T21:22:46.212Z,101409.72
2023-03-11T21:24:54.173Z,101403.66
2023-03-11T21:26:59.201Z,101407.97
2023-03-11T21:29:03.980Z,101402.78
2023-03-11T21:31:13.278Z,101404.53
2023-03-11T21:33:18.327Z,101414.03
2023-03-11T21:35:25.982Z,101414.03
2023-03-11T21:37:31.685Z,101415.75
2023-03-11T21:39:36.774Z,101414.91
2023-03-11T21:41:41.680Z,101419.22
2023-03-11T21:43:47.291Z,101414.00
2023-03-11T21:45:54.042Z,101409.72
2023-03-11T21:47:58.895Z,101404.53
2023-03-11T21:50:03.558Z,101404.50
2023-03-11T21:52:11.497Z,101410.56
2023-03-11T21:54:16.453Z,101406.25
2023-03-11T21:56:21.281Z,101407.09
2023-03-11T21:58:26.400Z,101402.78
2023-03-11T22:00:31.125Z,101404.53
2023-03-11T22:02:36.034Z,101400.22
2023-03-11T22:04:40.730Z,101395.03
2023-03-11T22:06:45.950Z,101396.75
2023-03-11T22:08:53.511Z,101388.09
2023-03-11T22:10:58.594Z,101391.53
2023-03-11T22:13:07.149Z,101390.69
2023-03-11T22:15:13.202Z,101388.09
2023-03-11T22:17:17.989Z,101386.38
2023-03-11T22:19:22.923Z,101384.66
2023-03-11T22:21:27.718Z,101389.84
2023-03-11T22:23:32.474Z,101393.28
2023-03-11T22:25:40.236Z,101389.81
2023-03-11T22:27:44.866Z,101392.44
2023-03-11T22:29:49.697Z,101382.91
2023-03-11T22:31:54.653Z,101376.88
2023-03-11T22:34:03.176Z,101375.13
2023-03-11T22:36:09.597Z,101369.06
2023-03-11T22:38:14.734Z,101367.34
2023-03-11T22:40:19.583Z,101367.31
2023-03-11T22:42:26.933Z,101358.69
2023-03-11T22:44:31.628Z,101358.72
2023-03-11T22:46:36.960Z,101356.09
2023-03-11T22:48:41.715Z,101355.22
2023-03-11T22:50:47.605Z,101363.03
2023-03-11T22:52:52.281Z,101361.28
2023-03-11T22:54:57.140Z,101363.00
2023-03-11T22:57:01.877Z,101359.56
2023-03-11T22:59:09.247Z,101359.53
2023-03-11T23:01:16.560Z,101360.41
2023-03-11T23:03:21.538Z,101351.75
2023-03-11T23:05:26.806Z,101354.34
2023-03-11T23:07:31.722Z,101350.03
2023-03-11T23:09:38.303Z,101346.56
2023-03-11T23:11:43.169Z,101337.91
2023-03-11T23:13:47.944Z,101331.88
2023-03-11T23:15:55.443Z,101333.59
2023-03-11T23:18:00.167Z,101333.59
2023-03-11T23:20:05.304Z,101338.81
2023-03-11T23:22:12.306Z,101335.34
2023-03-11T23:24:17.012Z,101338.78
2023-03-11T23:26:22.494Z,101340.53
2023-03-11T23:28:27.157Z,101330.13
2023-03-11T23:30:32.376Z,101331.00
2023-03-11T23:32:40.047Z,101321.50
2023-03-11T23:34:46.205Z,101325.81
2023-03-11T23:36:51.248Z,101316.28
2023-03-11T23:38:56.229Z,101309.38
2023-03-11T23:41:01.020Z,101308.50
2023-03-11T23:43:05.797Z,101300.72
2023-03-11T23:45:11.964Z,101294.66
2023-03-11T23:47:16.832Z,101296.41
2023-03-11T23:49:24.355Z,101302.44
2023-03-11T23:51:28.982Z,101305.06
2023-03-11T23:53:34.634Z,101291.19
2023-03-11T23:55:40.478Z,101300.72
2023-03-11T23:57:45.145Z,101299.84
2023-03-11T23:59:49.789Z,101300.75
